createdAt,value
2022-10-16T00:09:56.023Z,1.77
2022-10-16T00:13:00.673Z,1.98
2022-10-16T00:16:03.522Z,1.67
2022-10-16T00:19:06.421Z,2.00
2022-10-16T00:22:10.133Z,1.80
2022-10-16T00:25:13.547Z,1.98
2022-10-16T00:28:20.478Z,2.10
2022-10-16T00:31:23.504Z,1.67
2022-10-16T00:34:26.227Z,2.00
2022-10-16T00:37:28.769Z,1.58
2022-10-16T00:40:32.613Z,2.20
2022-10-16T00:43:41.841Z,1.77
2022-10-16T00:46:45.338Z,1.55
2022-10-16T00:49:48.411Z,1.95
2022-10-16T00:52:54.489Z,1.88
2022-10-16T00:55:57.287Z,2.08
2022-10-16T00:59:03.577Z,1.75
2022-10-16T01:02:07.657Z,1.58
2022-10-16T01:05:11.387Z,1.95
2022-10-16T01:08:15.639Z,1.63
2022-10-16T01:11:23.163Z,1.80
2022-10-16T01:14:30.450Z,1.67
2022-10-16T01:17:37.238Z,2.00
2022-10-16T01:20:43.810Z,1.75
2022-10-16T01:23:51.975Z,2.10
2022-10-16T01:27:18.387Z,2.10
2022-10-16T01:30:26.779Z,2.15
2022-10-16T01:33:32.023Z,1.95
2022-10-16T01:36:38.792Z,1.80
2022-10-16T01:39:43.960Z,1.83
2022-10-16T01:42:48.825Z,1.42
2022-10-16T01:45:55.756Z,1.73
2022-10-16T01:48:58.962Z,1.50
2022-10-16T01:52:04.568Z,1.75
2022-10-16T01:55:08.650Z,1.80
2022-10-16T01:58:11.809Z,1.40
2022-10-16T02:01:21.785Z,1.25
2022-10-16T02:04:27.084Z,1.20
2022-10-16T02:07:29.605Z,1.38
2022-10-16T02:10:33.175Z,1.10
2022-10-16T02:13:50.740Z,1.33
2022-10-16T02:17:02.298Z,1.23
2022-10-16T02:20:06.810Z,0.85
2022-10-16T02:23:14.275Z,1.73
2022-10-16T02:26:24.789Z,1.20
2022-10-16T02:29:27.777Z,0.82
2022-10-16T02:32:34.840Z,0.93
2022-10-16T02:35:39.739Z,0.85
2022-10-16T02:38:44.993Z,0.80
2022-10-16T02:41:48.001Z,0.88
2022-10-16T02:44:56.892Z,0.93
2022-10-16T02:48:00.815Z,0.75
2022-10-16T02:51:08.389Z,0.90
2022-10-16T02:54:11.616Z,0.98
2022-10-16T02:57:14.229Z,1.00
2022-10-16T03:00:18.021Z,0.90
2022-10-16T03:03:22.601Z,0.93
2022-10-16T03:06:25.290Z,1.63
2022-10-16T03:09:27.767Z,0.80
2022-10-16T03:12:31.774Z,1.17
2022-10-16T03:15:34.272Z,0.85
2022-10-16T03:18:38.165Z,0.73
2022-10-16T03:21:40.733Z,1.08
2022-10-16T03:24:43.272Z,0.80
2022-10-16T03:27:45.712Z,0.60
2022-10-16T03:30:48.153Z,0.70
2022-10-16T03:33:52.010Z,1.00
2022-10-16T03:36:56.886Z,0.95
2022-10-16T03:40:02.227Z,0.85
2022-10-16T03:43:04.910Z,0.68
2022-10-16T03:46:07.460Z,0.80
2022-10-16T03:49:13.238Z,0.68
2022-10-16T03:52:15.826Z,0.63
2022-10-16T03:55:18.322Z,1.00
2022-10-16T03:58:21.203Z,0.77
2022-10-16T04:01:24.589Z,0.70
2022-10-16T04:04:30.671Z,0.90
2022-10-16T04:07:35.004Z,0.90
2022-10-16T04:10:37.444Z,1.00
2022-10-16T04:13:39.975Z,1.02
2022-10-16T04:16:43.408Z,0.77
2022-10-16T04:19:47.975Z,0.65
2022-10-16T04:22:50.427Z,0.60
2022-10-16T04:25:53.018Z,0.70
2022-10-16T04:28:56.467Z,0.80
2022-10-16T04:31:58.987Z,0.80
2022-10-16T04:35:03.775Z,0.90
2022-10-16T04:38:06.390Z,0.93
2022-10-16T04:41:10.386Z,0.60
2022-10-16T04:44:12.939Z,0.70
2022-10-16T04:47:15.669Z,0.80
2022-10-16T04:50:19.738Z,0.80
2022-10-16T04:53:38.454Z,0.80
2022-10-16T04:56:47.493Z,0.55
2022-10-16T04:59:50.552Z,0.80
2022-10-16T05:02:54.947Z,0.63
2022-10-16T05:05:58.847Z,0.80
2022-10-16T05:09:01.482Z,0.73
2022-10-16T05:12:09.992Z,0.77
2022-10-16T05:15:13.827Z,0.98
2022-10-16T05:18:18.555Z,0.80
2022-10-16T05:21:22.753Z,0.80
2022-10-16T05:24:25.241Z,0.70
2022-10-16T05:27:28.277Z,0.70
2022-10-16T05:30:31.000Z,0.77
2022-10-16T05:33:33.595Z,1.00
2022-10-16T05:36:37.510Z,0.70
2022-10-16T05:39:39.955Z,0.82
2022-10-16T05:42:42.561Z,0.75
2022-10-16T05:45:45.279Z,0.77
2022-10-16T05:48:47.915Z,1.00
2022-10-16T05:51:51.712Z,0.73
2022-10-16T05:54:54.256Z,1.00
2022-10-16T05:57:57.089Z,0.82
2022-10-16T06:01:01.036Z,1.00
2022-10-16T06:04:04.058Z,0.82
2022-10-16T06:07:07.914Z,1.10
2022-10-16T06:10:10.697Z,1.02
2022-10-16T06:13:13.272Z,1.20
2022-10-16T06:16:15.787Z,1.00
2022-10-16T06:19:18.585Z,0.98
2022-10-16T06:22:22.509Z,0.80
2022-10-16T06:25:25.049Z,1.05
2022-10-16T06:28:27.619Z,0.57
2022-10-16T06:31:31.907Z,0.60
2022-10-16T06:34:35.334Z,0.80
2022-10-16T06:37:39.611Z,0.80
2022-10-16T06:40:42.152Z,0.80
2022-10-16T06:43:45.862Z,0.90
2022-10-16T06:46:48.277Z,0.77
2022-10-16T06:49:54.244Z,1.10
2022-10-16T06:52:58.524Z,1.35
2022-10-16T06:56:08.950Z,1.00
2022-10-16T06:59:11.565Z,1.00
2022-10-16T07:02:14.153Z,0.80
2022-10-16T07:05:17.469Z,1.20
2022-10-16T07:08:21.391Z,1.15
2022-10-16T07:11:24.926Z,1.90
2022-10-16T07:14:27.483Z,0.90
2022-10-16T07:17:29.974Z,1.20
2022-10-16T07:20:32.492Z,1.02
2022-10-16T07:23:36.593Z,1.25
2022-10-16T07:26:39.976Z,1.30
2022-10-16T07:29:42.598Z,0.90
2022-10-16T07:32:45.027Z,0.88
2022-10-16T07:35:51.930Z,1.02
2022-10-16T07:38:58.827Z,1.02
2022-10-16T07:42:03.017Z,0.82
2022-10-16T07:45:06.061Z,1.40
2022-10-16T07:48:08.485Z,1.27
2022-10-16T07:51:11.097Z,1.17
2022-10-16T07:54:15.104Z,1.15
2022-10-16T07:57:20.292Z,1.13
2022-10-16T08:00:22.924Z,0.98
2022-10-16T08:03:25.700Z,1.10
2022-10-16T08:06:28.315Z,1.40
2022-10-16T08:09:32.126Z,1.20
2022-10-16T08:12:34.603Z,1.10
2022-10-16T08:15:37.066Z,1.10
2022-10-16T08:18:40.193Z,1.40
2022-10-16T08:21:43.656Z,0.80
2022-10-16T08:24:48.021Z,0.95
2022-10-16T08:27:51.078Z,1.00
2022-10-16T08:30:54.306Z,1.00
2022-10-16T08:33:56.837Z,0.82
2022-10-16T08:36:59.483Z,1.25
2022-10-16T08:40:03.436Z,1.00
2022-10-16T08:43:14.629Z,1.30
2022-10-16T08:46:50.730Z,0.88
2022-10-16T08:49:57.894Z,1.15
2022-10-16T08:53:00.858Z,1.17
2022-10-16T08:56:06.567Z,1.00
2022-10-16T08:59:12.591Z,1.00
2022-10-16T09:02:24.425Z,0.70
2022-10-16T09:05:37.591Z,1.10
2022-10-16T09:08:47.658Z,0.90
2022-10-16T09:11:55.029Z,1.38
2022-10-16T09:15:04.378Z,0.90
2022-10-16T09:18:08.427Z,0.80
2022-10-16T09:21:14.379Z,0.90
2022-10-16T09:24:17.890Z,0.77
2022-10-16T09:27:24.208Z,0.65
2022-10-16T09:30:29.147Z,0.82
2022-10-16T09:33:32.413Z,0.60
2022-10-16T09:36:38.143Z,0.82
2022-10-16T09:39:46.263Z,0.65
2022-10-16T09:42:50.083Z,0.70
2022-10-16T09:45:56.353Z,0.95
2022-10-16T09:49:00.639Z,0.70
2022-10-16T09:52:07.084Z,0.82
2022-10-16T09:55:16.668Z,0.75
2022-10-16T09:58:23.157Z,0.88
2022-10-16T10:01:28.179Z,0.63
2022-10-16T10:04:39.575Z,1.90
2022-10-16T10:07:44.929Z,1.00
2022-10-16T10:10:50.278Z,0.70
2022-10-16T10:13:54.084Z,0.65
2022-10-16T10:17:04.750Z,0.70
2022-10-16T10:20:17.716Z,0.60
2022-10-16T10:23:22.764Z,0.60
2022-10-16T10:26:26.676Z,0.47
2022-10-16T10:29:46.209Z,0.47
2022-10-16T10:32:53.392Z,0.50
2022-10-16T10:35:59.960Z,0.50
2022-10-16T10:39:03.867Z,0.50
2022-10-16T10:42:13.153Z,0.90
2022-10-16T10:45:24.013Z,0.50
2022-10-16T10:48:48.274Z,0.63
2022-10-16T10:51:55.564Z,0.73
2022-10-16T10:55:02.317Z,0.50
2022-10-16T10:58:12.343Z,0.52
2022-10-16T11:01:19.017Z,0.45
2022-10-16T11:04:42.613Z,0.52
2022-10-16T11:07:49.295Z,0.40
2022-10-16T11:10:54.162Z,0.82
2022-10-16T11:13:59.746Z,0.55
2022-10-16T11:17:07.383Z,0.57
2022-10-16T11:20:15.389Z,0.50
2022-10-16T11:23:20.535Z,0.80
2022-10-16T11:26:25.945Z,0.60
2022-10-16T11:29:30.979Z,1.30
2022-10-16T11:32:44.603Z,0.85
2022-10-16T11:35:50.370Z,0.60
2022-10-16T11:38:55.772Z,0.60
2022-10-16T11:42:01.600Z,0.50
2022-10-16T11:45:06.030Z,0.90
2022-10-16T11:48:16.919Z,0.73
2022-10-16T11:51:23.146Z,0.73
2022-10-16T11:54:30.289Z,1.75
2022-10-16T11:57:35.034Z,1.08
2022-10-16T12:00:41.427Z,0.60
2022-10-16T12:03:50.676Z,1.23
2022-10-16T12:06:57.555Z,0.60
2022-10-16T12:10:01.667Z,0.77
2022-10-16T12:13:04.364Z,0.80
2022-10-16T12:16:07.620Z,0.80
2022-10-16T12:19:14.518Z,0.75
2022-10-16T12:22:19.452Z,0.63
2022-10-16T12:25:43.546Z,0.40
2022-10-16T12:28:56.992Z,0.75
2022-10-16T12:33:04.831Z,0.57
2022-10-16T12:36:31.303Z,0.82
2022-10-16T12:39:38.224Z,0.70
2022-10-16T12:42:45.860Z,0.50
2022-10-16T12:45:49.190Z,1.42
2022-10-16T12:49:09.686Z,0.95
2022-10-16T12:52:26.233Z,0.50
2022-10-16T12:55:36.616Z,0.50
2022-10-16T12:58:52.947Z,0.90
2022-10-16T13:02:05.317Z,0.82
2022-10-16T13:05:14.988Z,0.40
2022-10-16T13:08:36.298Z,0.60
2022-10-16T13:11:52.270Z,0.50
2022-10-16T13:15:01.306Z,0.65
2022-10-16T13:18:12.594Z,0.50
2022-10-16T13:21:22.444Z,0.57
2022-10-16T13:24:29.878Z,0.38
2022-10-16T13:27:37.390Z,0.55
2022-10-16T13:30:41.251Z,0.50
2022-10-16T13:33:49.179Z,0.38
2022-10-16T13:36:55.243Z,0.70
2022-10-16T13:40:04.830Z,0.63
2022-10-16T13:43:10.038Z,0.80
2022-10-16T13:46:14.622Z,0.60
2022-10-16T13:49:18.395Z,0.52
2022-10-16T13:52:22.185Z,0.70
2022-10-16T13:55:24.659Z,0.82
2022-10-16T13:58:34.103Z,0.65
2022-10-16T14:01:42.468Z,0.52
2022-10-16T14:04:48.578Z,0.65
2022-10-16T14:07:54.932Z,0.73
2022-10-16T14:10:58.646Z,0.60
2022-10-16T14:14:04.898Z,0.70
2022-10-16T14:17:07.618Z,0.70
2022-10-16T14:20:16.519Z,0.70
2022-10-16T14:23:22.890Z,0.52
2022-10-16T14:26:26.176Z,0.85
2022-10-16T14:29:32.294Z,0.82
2022-10-16T14:32:34.767Z,0.85
2022-10-16T14:35:38.483Z,0.85
2022-10-16T14:38:42.496Z,0.73
2022-10-16T14:41:47.114Z,0.60
2022-10-16T14:44:53.686Z,0.63
2022-10-16T14:47:57.981Z,0.50
2022-10-16T14:51:00.397Z,0.50
2022-10-16T14:54:07.727Z,0.90
2022-10-16T14:57:18.342Z,0.70
2022-10-16T15:00:24.100Z,0.68
2022-10-16T15:03:26.736Z,0.68
2022-10-16T15:06:29.254Z,0.80
2022-10-16T15:09:32.657Z,1.20
2022-10-16T15:12:35.325Z,1.63
2022-10-16T15:15:42.316Z,1.30
2022-10-16T15:18:44.923Z,0.98
2022-10-16T15:21:47.584Z,0.75
2022-10-16T15:24:52.481Z,0.70
2022-10-16T15:27:54.997Z,0.73
2022-10-16T15:30:58.980Z,0.90
2022-10-16T15:34:05.066Z,0.40
2022-10-16T15:37:07.638Z,0.77
2022-10-16T15:40:13.015Z,0.60
2022-10-16T15:43:15.746Z,0.80
2022-10-16T15:46:21.254Z,0.40
2022-10-16T15:49:23.815Z,0.68
2022-10-16T15:52:26.819Z,0.57
2022-10-16T15:55:29.428Z,0.60
2022-10-16T15:58:32.220Z,0.90
2022-10-16T16:01:36.757Z,0.80
2022-10-16T16:04:43.901Z,0.80
2022-10-16T16:07:48.075Z,0.88
2022-10-16T16:10:59.409Z,0.98
2022-10-16T16:14:02.028Z,0.40
2022-10-16T16:17:06.042Z,0.93
2022-10-16T16:20:09.322Z,1.95
2022-10-16T16:23:11.962Z,2.72
2022-10-16T16:26:15.406Z,1.95
2022-10-16T16:29:18.143Z,1.60
2022-10-16T16:32:21.990Z,1.15
2022-10-16T16:35:24.596Z,1.10
2022-10-16T16:38:27.614Z,1.10
2022-10-16T16:41:30.960Z,1.42
2022-10-16T16:44:34.417Z,1.00
2022-10-16T16:47:39.296Z,1.25
2022-10-16T16:50:41.827Z,1.15
2022-10-16T16:53:44.597Z,1.15
2022-10-16T16:56:47.970Z,1.23
2022-10-16T16:59:52.449Z,1.15
2022-10-16T17:02:56.426Z,1.30
2022-10-16T17:05:59.173Z,1.27
2022-10-16T17:09:03.481Z,1.33
2022-10-16T17:12:08.111Z,1.02
2022-10-16T17:15:11.054Z,1.15
2022-10-16T17:18:15.146Z,1.00
2022-10-16T17:21:17.792Z,1.38
2022-10-16T17:24:21.113Z,1.13
2022-10-16T17:27:24.853Z,1.70
2022-10-16T17:30:28.682Z,1.30
2022-10-16T17:33:32.803Z,1.30
2022-10-16T17:36:36.992Z,1.65
2022-10-16T17:39:39.529Z,1.83
2022-10-16T17:42:42.320Z,2.05
2022-10-16T17:45:44.904Z,1.83
2022-10-16T17:48:49.693Z,2.10
2022-10-16T17:51:53.857Z,1.92
2022-10-16T17:54:58.310Z,1.92
2022-10-16T17:58:02.942Z,3.80
2022-10-16T18:01:13.779Z,4.15
2022-10-16T18:04:17.998Z,3.20
2022-10-16T18:07:20.604Z,2.47
2022-10-16T18:10:23.109Z,3.55
2022-10-16T18:13:25.665Z,5.13
2022-10-16T18:16:28.654Z,4.07
2022-10-16T18:19:34.568Z,3.28
2022-10-16T18:22:37.259Z,3.60
2022-10-16T18:25:39.733Z,3.05
2022-10-16T18:28:42.551Z,2.72
2022-10-16T18:31:47.352Z,3.25
2022-10-16T18:34:53.929Z,3.10
2022-10-16T18:38:00.434Z,2.63
2022-10-16T18:41:05.435Z,2.90
2022-10-16T18:44:09.767Z,3.05
2022-10-16T18:47:14.863Z,4.10
2022-10-16T18:50:20.009Z,5.15
2022-10-16T18:53:23.349Z,11.00
2022-10-16T18:56:26.046Z,7.95
2022-10-16T18:59:28.951Z,5.32
2022-10-16T19:02:31.735Z,4.30
2022-10-16T19:05:35.961Z,4.13
2022-10-16T19:08:38.917Z,3.38
2022-10-16T19:11:42.574Z,2.97
2022-10-16T19:14:45.729Z,3.28
2022-10-16T19:17:50.366Z,3.90
2022-10-16T19:20:54.550Z,2.63
2022-10-16T19:24:04.998Z,3.13
2022-10-16T19:27:08.265Z,2.72
2022-10-16T19:33:15.439Z,2.72
2022-10-16T19:36:37.808Z,2.10
2022-10-16T19:40:08.934Z,3.20
2022-10-16T19:43:13.992Z,3.13
2022-10-16T19:46:17.675Z,2.75
2022-10-16T19:52:46.833Z,2.92
2022-10-16T19:55:51.311Z,2.67
2022-10-16T19:58:55.192Z,2.38
2022-10-16T20:01:57.899Z,2.30
2022-10-16T20:05:00.492Z,2.78
2022-10-16T20:08:32.367Z,2.55
2022-10-16T20:11:37.901Z,3.08
2022-10-16T20:14:40.759Z,3.50
2022-10-16T20:17:51.662Z,2.78
2022-10-16T20:20:57.822Z,2.92
2022-10-16T20:24:01.109Z,3.00
2022-10-16T20:27:29.113Z,3.35
2022-10-16T20:30:34.747Z,3.45
2022-10-16T20:33:57.733Z,2.90
2022-10-16T20:37:00.715Z,3.92
2022-10-16T20:40:03.483Z,3.95
2022-10-16T20:43:14.833Z,2.90
2022-10-16T20:46:24.331Z,3.08
2022-10-16T20:50:00.386Z,3.47
2022-10-16T21:19:38.334Z,2.22
2022-10-16T21:22:40.957Z,2.42
2022-10-16T21:25:51.533Z,1.95
2022-10-16T21:28:54.692Z,2.15
2022-10-16T21:31:57.558Z,2.30
2022-10-16T21:35:41.643Z,2.20
2022-10-16T21:52:05.697Z,1.70
2022-10-16T21:55:23.281Z,1.98
2022-10-16T21:58:25.951Z,1.48
2022-10-16T22:01:29.283Z,1.63
2022-10-16T22:04:31.986Z,1.70
2022-10-16T22:07:43.312Z,1.90
2022-10-16T22:15:43.067Z,1.83
2022-10-16T22:18:45.818Z,1.50
2022-10-16T22:21:48.851Z,1.73
2022-10-16T22:24:53.750Z,1.55
2022-10-16T22:27:57.665Z,1.27
2022-10-16T22:31:01.931Z,1.40
2022-10-16T22:34:05.545Z,1.40
2022-10-16T22:37:08.092Z,1.40
2022-10-16T22:40:11.659Z,1.80
2022-10-16T22:43:15.632Z,1.52
2022-10-16T22:46:19.317Z,1.58
2022-10-16T22:49:21.884Z,1.70
2022-10-16T22:52:24.692Z,1.30
2022-10-16T22:55:27.427Z,1.42
2022-10-16T22:58:31.417Z,1.88
2022-10-16T23:01:35.680Z,1.42
2022-10-16T23:04:38.187Z,1.40
2022-10-16T23:07:40.749Z,1.50
2022-10-16T23:10:45.927Z,1.52
2022-10-16T23:13:50.014Z,1.60
2022-10-16T23:16:52.718Z,1.77
2022-10-16T23:19:55.223Z,1.80
2022-10-16T23:22:57.856Z,1.50
2022-10-16T23:26:00.398Z,1.30
2022-10-16T23:29:04.843Z,1.63
2022-10-16T23:32:07.445Z,1.70
2022-10-16T23:35:10.210Z,1.60
2022-10-16T23:38:13.896Z,1.27
2022-10-16T23:41:16.788Z,1.27
2022-10-16T23:44:21.451Z,2.08
2022-10-16T23:47:23.889Z,1.50
2022-10-16T23:50:28.669Z,1.30
2022-10-16T23:53:31.955Z,1.73
2022-10-16T23:56:34.427Z,1.50
2022-10-16T23:59:38.236Z,1.40
